createdAt,value
2022-07-29T00:01:03.853Z,95693.66
2022-07-29T00:03:30.520Z,95688.78
2022-07-29T00:05:57.168Z,95687.16
2022-07-29T00:08:23.893Z,95691.13
2022-07-29T00:10:51.955Z,95689.19
2022-07-29T00:13:18.585Z,95689.84
2022-07-29T00:15:58.943Z,95686.25
2022-07-29T00:18:31.273Z,95685.50
2022-07-29T00:20:57.942Z,95678.50
2022-07-29T00:23:24.534Z,95684.56
2022-07-29T00:25:51.156Z,95677.16
2022-07-29T00:28:17.720Z,95671.97
2022-07-29T00:30:44.378Z,95665.47
2022-07-29T00:33:11.041Z,95665.72
2022-07-29T00:35:47.109Z,95663.09
2022-07-29T00:38:15.589Z,95661.81
2022-07-29T00:40:43.287Z,95664.75
2022-07-29T00:43:11.393Z,95657.41
2022-07-29T00:45:38.045Z,95660.91
2022-07-29T00:48:05.826Z,95654.41
2022-07-29T00:50:33.928Z,95651.63
2022-07-29T00:53:01.082Z,95649.94
2022-07-29T00:55:27.941Z,95639.97
2022-07-29T00:57:54.735Z,95638.13
2022-07-29T01:00:24.340Z,95647.88
2022-07-29T01:02:51.630Z,95640.81
2022-07-29T01:05:20.525Z,95643.19
2022-07-29T01:07:49.485Z,95639.00
2022-07-29T01:10:17.438Z,95638.28
2022-07-29T01:12:45.687Z,95628.16
2022-07-29T01:15:12.628Z,95628.63
2022-07-29T01:17:52.582Z,95628.88
2022-07-29T01:21:01.446Z,95624.16
2022-07-29T01:23:37.439Z,95629.63
2022-07-29T01:26:30.038Z,95631.03
2022-07-29T01:29:09.801Z,95626.25
2022-07-29T01:31:59.805Z,95624.09
2022-07-29T01:34:51.388Z,95612.75
2022-07-29T01:37:26.561Z,95608.41
2022-07-29T01:39:56.992Z,95612.19
2022-07-29T01:42:31.519Z,95606.16
2022-07-29T01:45:10.276Z,95614.44
2022-07-29T01:48:01.661Z,95606.97
2022-07-29T01:50:35.462Z,95601.41
2022-07-29T01:53:05.632Z,95609.38
2022-07-29T01:55:39.409Z,95612.91
2022-07-29T01:58:07.931Z,95605.81
2022-07-29T02:00:35.683Z,95606.69
2022-07-29T02:03:08.314Z,95607.16
2022-07-29T02:05:36.805Z,95600.34
2022-07-29T02:08:06.039Z,95602.16
2022-07-29T02:10:34.811Z,95601.28
2022-07-29T02:13:03.048Z,95606.47
2022-07-29T02:15:33.016Z,95606.72
2022-07-29T02:18:04.898Z,95603.88
2022-07-29T02:20:31.934Z,95603.28
2022-07-29T02:23:00.509Z,95605.44
2022-07-29T02:25:38.060Z,95599.69
2022-07-29T02:28:07.262Z,95601.34
2022-07-29T02:30:37.629Z,95599.28
2022-07-29T02:33:05.900Z,95598.75
2022-07-29T02:35:34.574Z,95600.53
2022-07-29T02:38:21.916Z,95599.03
2022-07-29T02:40:50.829Z,95597.13
2022-07-29T02:43:19.665Z,95601.94
2022-07-29T02:45:52.541Z,95597.25
2022-07-29T02:48:23.468Z,95604.34
2022-07-29T02:50:56.621Z,95596.13
2022-07-29T02:53:28.087Z,95597.47
2022-07-29T02:56:01.592Z,95608.66
2022-07-29T02:58:41.820Z,95607.38
2022-07-29T03:01:21.324Z,95612.75
2022-07-29T03:03:51.615Z,95608.41
2022-07-29T03:06:37.767Z,95618.19
2022-07-29T03:09:12.557Z,95616.63
2022-07-29T03:11:49.320Z,95620.38
2022-07-29T03:14:19.123Z,95613.97
2022-07-29T03:16:46.177Z,95617.94
2022-07-29T03:19:13.271Z,95612.91
2022-07-29T03:21:40.042Z,95610.84
2022-07-29T03:24:10.504Z,95612.16
2022-07-29T03:26:37.962Z,95611.19
2022-07-29T03:29:04.570Z,95612.28
2022-07-29T03:31:32.140Z,95612.28
2022-07-29T03:34:00.302Z,95612.28
2022-07-29T03:36:27.046Z,95610.25
2022-07-29T03:38:54.237Z,95613.50
2022-07-29T03:41:23.661Z,95612.41
2022-07-29T03:43:52.764Z,95620.59
2022-07-29T03:46:23.776Z,95618.31
2022-07-29T03:48:57.374Z,95610.59
2022-07-29T03:51:33.470Z,95620.72
2022-07-29T03:54:09.676Z,95618.53
2022-07-29T03:56:43.048Z,95619.75
2022-07-29T03:59:12.187Z,95617.56
2022-07-29T04:01:40.030Z,95617.34
2022-07-29T04:04:06.856Z,95620.44
2022-07-29T04:06:44.861Z,95617.34
2022-07-29T04:09:12.997Z,95613.84
2022-07-29T04:12:03.511Z,95614.22
2022-07-29T04:14:27.928Z,95619.75
2022-07-29T04:16:54.525Z,95622.28
2022-07-29T04:19:21.169Z,95618.31
2022-07-29T04:21:47.962Z,95621.22
2022-07-29T04:24:14.968Z,95623.50
2022-07-29T04:26:41.761Z,95624.56
2022-07-29T04:29:08.467Z,95619.50
2022-07-29T04:31:35.288Z,95614.72
2022-07-29T04:34:02.004Z,95618.66
2022-07-29T04:36:29.947Z,95619.03
2022-07-29T04:38:57.071Z,95616.41
2022-07-29T04:41:23.730Z,95612.31
2022-07-29T04:44:01.973Z,95606.50
2022-07-29T04:46:28.917Z,95602.91
2022-07-29T04:48:55.744Z,95604.59
2022-07-29T04:51:22.476Z,95607.09
2022-07-29T04:53:49.289Z,95614.63
2022-07-29T04:56:16.017Z,95608.91
2022-07-29T04:58:42.842Z,95611.63
2022-07-29T05:01:09.506Z,95613.09
2022-07-29T05:03:36.134Z,95614.69
2022-07-29T05:06:02.811Z,95612.06
2022-07-29T05:08:29.592Z,95619.03
2022-07-29T05:10:56.512Z,95618.41
2022-07-29T05:13:23.082Z,95617.13
2022-07-29T05:15:49.890Z,95626.72
2022-07-29T05:18:16.743Z,95635.50
2022-07-29T05:20:43.356Z,95635.88
2022-07-29T05:23:10.026Z,95631.56
2022-07-29T05:25:43.070Z,95635.53
2022-07-29T05:28:10.710Z,95629.59
2022-07-29T05:30:37.347Z,95635.88
2022-07-29T05:33:04.206Z,95642.00
2022-07-29T05:35:31.153Z,95638.50
2022-07-29T05:37:57.958Z,95636.34
2022-07-29T05:40:24.585Z,95645.97
2022-07-29T05:42:51.190Z,95639.13
2022-07-29T05:45:17.789Z,95648.41
2022-07-29T05:47:44.705Z,95647.22
2022-07-29T05:50:11.492Z,95647.44
2022-07-29T05:52:38.121Z,95654.06
2022-07-29T05:55:06.629Z,95661.03
2022-07-29T05:57:33.559Z,95654.28
2022-07-29T06:00:00.614Z,95650.91
2022-07-29T06:02:27.355Z,95649.25
2022-07-29T06:04:54.754Z,95659.13
2022-07-29T06:07:21.820Z,95655.75
2022-07-29T06:09:48.435Z,95657.78
2022-07-29T06:12:15.396Z,95666.69
2022-07-29T06:14:42.060Z,95662.59
2022-07-29T06:17:08.678Z,95666.47
2022-07-29T06:19:37.200Z,95666.19
2022-07-29T06:22:03.901Z,95666.69
2022-07-29T06:24:30.494Z,95670.06
2022-07-29T06:26:57.065Z,95669.81
2022-07-29T06:29:23.762Z,95664.78
2022-07-29T06:31:50.363Z,95672.00
2022-07-29T06:34:17.462Z,95671.25
2022-07-29T06:36:44.547Z,95678.22
2022-07-29T06:39:12.584Z,95675.00
2022-07-29T06:41:39.171Z,95676.38
2022-07-29T06:44:10.089Z,95672.19
2022-07-29T06:46:37.518Z,95683.75
2022-07-29T06:49:05.436Z,95680.97
2022-07-29T06:51:32.126Z,95684.09
2022-07-29T06:54:03.385Z,95679.84
2022-07-29T06:56:46.387Z,95683.94
2022-07-29T06:59:13.957Z,95690.06
2022-07-29T07:01:43.272Z,95700.09
2022-07-29T07:04:10.681Z,95694.69
2022-07-29T07:06:37.852Z,95697.13
2022-07-29T07:09:04.965Z,95703.41
2022-07-29T07:11:31.776Z,95702.66
2022-07-29T07:14:03.088Z,95703.88
2022-07-29T07:16:30.471Z,95708.78
2022-07-29T07:18:57.115Z,95709.63
2022-07-29T07:21:23.767Z,95717.69
2022-07-29T07:23:50.457Z,95716.56
2022-07-29T07:26:17.113Z,95709.34
2022-07-29T07:28:43.735Z,95707.47
2022-07-29T07:31:10.649Z,95706.09
2022-07-29T07:33:37.304Z,95711.47
2022-07-29T07:36:04.167Z,95707.53
2022-07-29T07:38:30.753Z,95710.53
2022-07-29T07:40:57.451Z,95714.22
2022-07-29T07:43:24.137Z,95723.13
2022-07-29T07:45:50.800Z,95716.47
2022-07-29T07:48:17.709Z,95719.13
2022-07-29T07:50:44.771Z,95710.19
2022-07-29T07:53:11.705Z,95718.22
2022-07-29T07:56:09.377Z,95720.25
2022-07-29T07:58:31.820Z,95717.91
2022-07-29T08:00:58.633Z,95711.59
2022-07-29T08:03:25.271Z,95708.38
2022-07-29T08:05:52.833Z,95705.78
2022-07-29T08:08:19.560Z,95708.63
2022-07-29T08:10:56.775Z,95710.06
2022-07-29T08:13:26.516Z,95715.19
2022-07-29T08:15:58.898Z,95709.53
2022-07-29T08:18:27.621Z,95713.50
2022-07-29T08:20:54.513Z,95710.47
2022-07-29T08:23:21.539Z,95706.44
2022-07-29T08:25:50.350Z,95712.44
2022-07-29T08:28:18.041Z,95715.28
2022-07-29T08:30:45.898Z,95707.13
2022-07-29T08:33:12.605Z,95722.09
2022-07-29T08:35:39.942Z,95715.25
2022-07-29T08:38:06.554Z,95722.63
2022-07-29T08:40:33.256Z,95731.25
2022-07-29T08:43:05.067Z,95722.16
2022-07-29T08:45:47.960Z,95740.59
2022-07-29T08:48:21.133Z,95739.09
2022-07-29T08:50:50.905Z,95734.88
2022-07-29T08:53:18.957Z,95732.47
2022-07-29T08:55:47.610Z,95724.94
2022-07-29T08:58:15.904Z,95728.84
2022-07-29T09:00:46.315Z,95722.19
2022-07-29T09:03:16.604Z,95725.81
2022-07-29T09:05:48.078Z,95721.47
2022-07-29T09:08:16.381Z,95730.66
2022-07-29T09:10:43.813Z,95736.66
2022-07-29T09:13:10.508Z,95723.38
2022-07-29T09:15:37.153Z,95727.34
2022-07-29T09:18:03.786Z,95728.53
2022-07-29T09:20:50.369Z,95731.47
2022-07-29T09:23:23.430Z,95732.00
2022-07-29T09:25:51.551Z,95722.75
2022-07-29T09:28:19.132Z,95724.44
2022-07-29T09:30:59.300Z,95725.53
2022-07-29T09:33:35.407Z,95723.84
2022-07-29T09:36:07.368Z,95721.47
2022-07-29T09:38:35.429Z,95711.25
2022-07-29T09:41:05.737Z,95709.28
2022-07-29T09:43:33.474Z,95714.41
2022-07-29T09:46:15.692Z,95715.00
2022-07-29T09:48:42.484Z,95720.06
2022-07-29T09:51:21.533Z,95706.84
2022-07-29T09:53:51.301Z,95707.56
2022-07-29T09:56:19.705Z,95695.53
2022-07-29T09:58:46.332Z,95704.22
2022-07-29T10:01:13.481Z,95693.31
2022-07-29T10:03:53.590Z,95697.19
2022-07-29T10:06:20.272Z,95691.31
2022-07-29T10:08:47.666Z,95696.25
2022-07-29T10:11:16.680Z,95691.59
2022-07-29T10:13:46.979Z,95677.28
2022-07-29T10:16:15.407Z,95686.53
2022-07-29T10:18:43.343Z,95672.81
2022-07-29T10:21:11.089Z,95677.84
2022-07-29T10:23:50.229Z,95675.59
2022-07-29T10:26:17.705Z,95671.13
2022-07-29T10:28:44.321Z,95677.38
2022-07-29T10:31:27.067Z,95678.34
2022-07-29T10:34:14.655Z,95679.31
2022-07-29T10:37:35.909Z,95688.72
2022-07-29T10:40:44.023Z,95684.81
2022-07-29T10:43:23.207Z,95677.38
2022-07-29T10:45:57.450Z,95680.97
2022-07-29T10:48:24.855Z,95676.38
2022-07-29T10:50:57.986Z,95681.00
2022-07-29T10:53:25.846Z,95681.47
2022-07-29T10:56:00.379Z,95682.97
2022-07-29T10:58:27.025Z,95677.75
2022-07-29T11:00:55.149Z,95674.97
2022-07-29T11:03:52.444Z,95678.41
2022-07-29T11:06:26.620Z,95674.44
2022-07-29T11:09:34.942Z,95685.69
2022-07-29T11:12:04.591Z,95677.72
2022-07-29T11:14:56.798Z,95673.00
2022-07-29T11:17:26.533Z,95674.63
2022-07-29T11:20:32.164Z,95669.38
2022-07-29T11:22:59.401Z,95672.75
2022-07-29T11:25:42.533Z,95677.22
2022-07-29T11:28:22.760Z,95676.19
2022-07-29T11:30:54.537Z,95677.81
2022-07-29T11:33:54.526Z,95676.28
2022-07-29T11:36:19.064Z,95671.19
2022-07-29T11:39:36.933Z,95678.16
2022-07-29T11:42:32.674Z,95678.41
2022-07-29T11:48:27.780Z,95674.34
2022-07-29T11:50:48.547Z,95676.91
2022-07-29T11:53:16.211Z,95681.69
2022-07-29T11:55:51.595Z,95682.53
2022-07-29T12:01:17.406Z,95679.63
2022-07-29T12:03:45.060Z,95677.00
2022-07-29T12:07:02.364Z,95683.81
2022-07-29T12:09:08.364Z,95678.47
2022-07-29T12:11:41.012Z,95681.03
2022-07-29T12:14:08.400Z,95696.66
2022-07-29T12:16:38.339Z,95706.44
2022-07-29T12:19:05.600Z,95703.59
2022-07-29T12:21:53.605Z,95721.38
2022-07-29T12:24:23.321Z,95706.22
2022-07-29T12:26:55.964Z,95708.16
2022-07-29T12:29:34.529Z,95708.16
2022-07-29T12:32:02.199Z,95705.09
2022-07-29T12:34:30.385Z,95702.69
2022-07-29T12:36:57.081Z,95697.47
2022-07-29T12:39:27.280Z,95693.69
2022-07-29T12:41:54.261Z,95688.19
2022-07-29T12:44:48.802Z,95690.50
2022-07-29T12:47:16.718Z,95698.72
2022-07-29T12:49:43.358Z,95691.25
2022-07-29T12:52:33.050Z,95687.44
2022-07-29T12:55:00.858Z,95688.53
2022-07-29T12:57:28.734Z,95685.81
2022-07-29T13:00:12.388Z,95693.63
2022-07-29T13:02:40.015Z,95691.94
2022-07-29T13:05:09.238Z,95685.63
2022-07-29T13:07:54.287Z,95682.91
2022-07-29T13:10:24.295Z,95688.94
2022-07-29T13:13:07.506Z,95690.25
2022-07-29T13:15:35.095Z,95679.94
2022-07-29T13:18:02.142Z,95686.34
2022-07-29T13:20:32.725Z,95698.94
2022-07-29T13:23:02.330Z,95701.56
2022-07-29T13:25:33.302Z,95713.50
2022-07-29T13:28:00.640Z,95708.81
2022-07-29T13:30:27.296Z,95713.13
2022-07-29T13:32:54.307Z,95709.41
2022-07-29T13:35:21.299Z,95708.94
2022-07-29T13:37:48.109Z,95710.25
2022-07-29T13:40:15.369Z,95715.53
2022-07-29T13:42:42.318Z,95711.75
2022-07-29T13:45:10.350Z,95711.41
2022-07-29T13:47:37.399Z,95708.63
2022-07-29T13:50:06.786Z,95702.97
2022-07-29T13:52:34.386Z,95717.25
2022-07-29T13:55:01.590Z,95718.84
2022-07-29T13:57:28.731Z,95711.63
2022-07-29T13:59:55.697Z,95713.03
2022-07-29T14:02:25.340Z,95714.84
2022-07-29T14:04:52.661Z,95709.50
2022-07-29T14:07:19.470Z,95708.69
2022-07-29T14:09:46.124Z,95710.91
2022-07-29T14:12:12.868Z,95713.72
2022-07-29T14:14:39.633Z,95715.13
2022-07-29T14:17:07.595Z,95711.78
2022-07-29T14:19:39.281Z,95710.22
2022-07-29T14:22:08.629Z,95715.38
2022-07-29T14:24:37.349Z,95720.88
2022-07-29T14:27:05.643Z,95722.56
2022-07-29T14:29:37.201Z,95723.69
2022-07-29T14:32:11.152Z,95723.41
2022-07-29T14:34:38.989Z,95726.22
2022-07-29T14:37:06.925Z,95730.28
2022-07-29T14:39:42.084Z,95730.97
2022-07-29T14:42:14.158Z,95738.81
2022-07-29T14:44:42.881Z,95738.69
2022-07-29T14:47:12.309Z,95737.56
2022-07-29T14:49:38.894Z,95740.78
2022-07-29T14:52:05.751Z,95731.25
2022-07-29T14:54:32.406Z,95738.00
2022-07-29T14:56:59.069Z,95736.84
2022-07-29T14:59:27.085Z,95739.81
2022-07-29T15:01:53.997Z,95746.38
2022-07-29T15:04:21.006Z,95736.16
2022-07-29T15:06:48.205Z,95740.94
2022-07-29T15:09:15.178Z,95746.91
2022-07-29T15:11:42.041Z,95741.44
2022-07-29T15:14:08.741Z,95741.28
2022-07-29T15:16:43.541Z,95743.81
2022-07-29T15:19:10.748Z,95738.66
2022-07-29T15:21:41.699Z,95735.13
2022-07-29T15:24:18.485Z,95737.78
2022-07-29T15:26:45.586Z,95742.50
2022-07-29T15:29:12.951Z,95737.72
2022-07-29T15:31:39.704Z,95735.50
2022-07-29T15:34:07.281Z,95727.00
2022-07-29T15:39:21.843Z,95737.91
2022-07-29T15:41:48.479Z,95730.88
2022-07-29T15:44:15.175Z,95728.28
2022-07-29T15:47:01.026Z,95736.28
2022-07-29T15:49:47.666Z,95732.59
2022-07-29T15:52:19.090Z,95735.09
2022-07-29T15:54:52.172Z,95728.97
2022-07-29T15:57:18.769Z,95727.00
2022-07-29T15:59:45.456Z,95729.28
2022-07-29T16:02:12.588Z,95726.84
2022-07-29T16:04:39.617Z,95726.84
2022-07-29T16:07:06.951Z,95735.00
2022-07-29T16:09:33.601Z,95727.41
2022-07-29T16:12:00.361Z,95726.06
2022-07-29T16:14:28.300Z,95734.97
2022-07-29T16:16:55.296Z,95728.56
2022-07-29T16:19:22.203Z,95734.75
2022-07-29T16:21:48.869Z,95733.22
2022-07-29T16:24:15.499Z,95736.53
2022-07-29T16:26:42.122Z,95733.59
2022-07-29T16:29:08.746Z,95729.56
2022-07-29T16:31:35.462Z,95734.47
2022-07-29T16:34:02.537Z,95727.19
2022-07-29T16:36:29.256Z,95728.28
2022-07-29T16:38:55.836Z,95730.00
2022-07-29T16:41:22.461Z,95721.97
2022-07-29T16:43:49.161Z,95727.63
2022-07-29T16:46:18.983Z,95738.28
2022-07-29T16:48:47.580Z,95737.00
2022-07-29T16:51:15.330Z,95733.78
2022-07-29T16:53:42.275Z,95743.31
2022-07-29T16:56:11.159Z,95738.56
2022-07-29T16:58:43.513Z,95737.03
2022-07-29T17:01:10.564Z,95738.84
2022-07-29T17:04:00.198Z,95737.72
2022-07-29T17:06:28.659Z,95738.00
2022-07-29T17:08:56.481Z,95742.63
2022-07-29T17:11:23.128Z,95740.09
2022-07-29T17:14:10.435Z,95743.19
2022-07-29T17:16:37.416Z,95741.25
2022-07-29T17:19:04.157Z,95752.16
2022-07-29T17:21:30.758Z,95747.94
2022-07-29T17:23:59.263Z,95746.56
2022-07-29T17:26:28.019Z,95740.09
2022-07-29T17:28:55.919Z,95754.41
2022-07-29T17:31:23.462Z,95751.03
2022-07-29T17:33:50.562Z,95762.25
2022-07-29T17:36:29.743Z,95755.09
2022-07-29T17:38:59.716Z,95759.16
2022-07-29T17:41:26.747Z,95760.28
2022-07-29T17:43:54.488Z,95757.91
2022-07-29T17:46:24.703Z,95755.66
2022-07-29T17:48:51.499Z,95755.50
2022-07-29T17:51:18.236Z,95757.75
2022-07-29T17:53:44.887Z,95756.91
2022-07-29T17:56:11.604Z,95770.34
2022-07-29T17:58:39.414Z,95763.66
2022-07-29T18:01:06.355Z,95771.06
2022-07-29T18:03:33.518Z,95764.16
2022-07-29T18:06:00.676Z,95762.56
2022-07-29T18:08:28.000Z,95766.78
2022-07-29T18:10:54.726Z,95771.38
2022-07-29T18:13:21.619Z,95766.81
2022-07-29T18:15:48.402Z,95772.97
2022-07-29T18:18:15.915Z,95777.28
2022-07-29T18:20:43.398Z,95769.72
2022-07-29T18:23:10.565Z,95772.81
2022-07-29T18:25:37.416Z,95768.94
2022-07-29T18:28:04.363Z,95775.13
2022-07-29T18:30:34.011Z,95780.88
2022-07-29T18:33:20.393Z,95783.13
2022-07-29T18:35:49.481Z,95784.94
2022-07-29T18:38:16.203Z,95781.88
2022-07-29T18:40:43.366Z,95784.53
2022-07-29T18:43:10.017Z,95782.56
2022-07-29T18:45:36.735Z,95779.91
2022-07-29T18:48:08.425Z,95788.88
2022-07-29T18:50:40.460Z,95790.56
2022-07-29T18:53:07.213Z,95794.91
2022-07-29T18:55:33.858Z,95790.84
2022-07-29T18:58:00.514Z,95792.69
2022-07-29T19:00:27.787Z,95794.75
2022-07-29T19:02:54.987Z,95797.16
2022-07-29T19:05:23.001Z,95798.41
2022-07-29T19:07:49.688Z,95813.94
2022-07-29T19:10:16.539Z,95811.97
2022-07-29T19:12:43.320Z,95816.00
2022-07-29T19:15:10.660Z,95810.06
2022-07-29T19:17:37.956Z,95814.00
2022-07-29T19:20:05.628Z,95818.59
2022-07-29T19:22:34.106Z,95822.19
2022-07-29T19:25:00.708Z,95822.59
2022-07-29T19:27:27.348Z,95830.66
2022-07-29T19:29:59.003Z,95827.81
2022-07-29T19:32:26.057Z,95841.22
2022-07-29T19:35:11.478Z,95836.69
2022-07-29T19:37:38.129Z,95847.38
2022-07-29T19:40:06.185Z,95849.97
2022-07-29T19:42:32.827Z,95846.53
2022-07-29T19:44:59.409Z,95851.53
2022-07-29T19:47:26.068Z,95851.19
2022-07-29T19:49:52.655Z,95854.94
2022-07-29T19:52:19.308Z,95856.16
2022-07-29T19:54:46.029Z,95853.66
2022-07-29T19:57:12.614Z,95859.00
2022-07-29T19:59:40.940Z,95855.56
2022-07-29T20:02:10.739Z,95860.72
2022-07-29T20:04:37.895Z,95856.88
2022-07-29T20:07:05.157Z,95850.34
2022-07-29T20:09:31.793Z,95853.34
2022-07-29T20:11:58.569Z,95849.72
2022-07-29T20:14:25.169Z,95849.34
2022-07-29T20:16:53.960Z,95856.78
2022-07-29T20:19:20.567Z,95855.22
2022-07-29T20:21:47.168Z,95853.69
2022-07-29T20:24:13.828Z,95847.09
2022-07-29T20:26:40.522Z,95852.66
2022-07-29T20:29:07.183Z,95857.59
2022-07-29T20:31:34.066Z,95856.91
2022-07-29T20:34:01.977Z,95861.22
2022-07-29T20:36:28.682Z,95855.38
2022-07-29T20:38:56.384Z,95871.09
2022-07-29T20:41:23.573Z,95858.56
2022-07-29T20:43:50.591Z,95857.75
2022-07-29T20:46:18.190Z,95860.16
2022-07-29T20:48:46.958Z,95856.38
2022-07-29T20:51:14.486Z,95859.81
2022-07-29T20:53:41.607Z,95854.53
2022-07-29T20:56:08.383Z,95857.19
2022-07-29T20:58:36.186Z,95850.06
2022-07-29T21:01:03.797Z,95856.38
2022-07-29T21:03:30.531Z,95853.09
2022-07-29T21:05:57.105Z,95847.50
2022-07-29T21:08:24.081Z,95857.41
2022-07-29T21:10:50.717Z,95846.88
2022-07-29T21:13:18.243Z,95853.25
2022-07-29T21:15:48.915Z,95856.16
2022-07-29T21:18:27.275Z,95853.56
2022-07-29T21:20:54.915Z,95849.94
2022-07-29T21:23:21.684Z,95853.53
2022-07-29T21:25:48.405Z,95852.66
2022-07-29T21:28:27.082Z,95850.56
2022-07-29T21:30:55.042Z,95850.47
2022-07-29T21:33:22.035Z,95849.53
2022-07-29T21:36:26.577Z,95840.03
2022-07-29T21:38:36.412Z,95845.84
2022-07-29T21:41:04.626Z,95835.19
2022-07-29T21:43:31.679Z,95846.28
2022-07-29T21:45:59.606Z,95842.28
2022-07-29T21:48:28.154Z,95841.78
2022-07-29T21:50:54.918Z,95843.69
2022-07-29T21:53:22.860Z,95846.22
2022-07-29T21:55:54.306Z,95849.78
2022-07-29T21:58:22.910Z,95846.00
2022-07-29T22:00:50.135Z,95842.00
2022-07-29T22:03:16.938Z,95853.22
2022-07-29T22:05:44.620Z,95843.47
2022-07-29T22:08:11.556Z,95850.03
2022-07-29T22:10:38.303Z,95846.00
2022-07-29T22:13:04.984Z,95837.38
2022-07-29T22:15:32.261Z,95842.25
2022-07-29T22:17:59.667Z,95844.00
2022-07-29T22:20:26.515Z,95841.88
2022-07-29T22:22:53.558Z,95838.72
2022-07-29T22:25:20.551Z,95839.19
2022-07-29T22:27:47.199Z,95844.59
2022-07-29T22:30:14.691Z,95844.44
2022-07-29T22:32:41.450Z,95845.91
2022-07-29T22:35:08.813Z,95847.28
2022-07-29T22:37:35.457Z,95850.13
2022-07-29T22:40:02.559Z,95850.97
2022-07-29T22:42:30.651Z,95854.03
2022-07-29T22:44:57.373Z,95855.81
2022-07-29T22:47:46.271Z,95852.75
2022-07-29T22:50:11.096Z,95851.72
2022-07-29T22:52:37.653Z,95841.25
2022-07-29T22:55:05.425Z,95858.59
2022-07-29T22:57:32.403Z,95861.00
2022-07-29T23:00:01.669Z,95858.06
2022-07-29T23:02:29.042Z,95855.75
2022-07-29T23:04:55.934Z,95851.94
2022-07-29T23:07:23.049Z,95855.44
2022-07-29T23:09:49.868Z,95860.50
2022-07-29T23:12:16.570Z,95860.91
2022-07-29T23:14:43.968Z,95857.69
2022-07-29T23:17:10.667Z,95860.31
2022-07-29T23:19:37.540Z,95855.28
2022-07-29T23:22:04.973Z,95863.16
2022-07-29T23:24:31.613Z,95861.03
2022-07-29T23:26:58.659Z,95865.97
2022-07-29T23:29:26.474Z,95865.00
2022-07-29T23:31:53.146Z,95868.25
2022-07-29T23:34:19.846Z,95864.97
2022-07-29T23:36:46.728Z,95866.53
2022-07-29T23:39:13.480Z,95871.88
2022-07-29T23:41:40.482Z,95864.66
2022-07-29T23:44:07.222Z,95875.00
2022-07-29T23:46:34.124Z,95871.19
2022-07-29T23:49:00.924Z,95877.47
2022-07-29T23:51:29.184Z,95869.28
2022-07-29T23:53:56.125Z,95876.38
2022-07-29T23:56:23.441Z,95879.03
2022-07-29T23:58:50.224Z,95882.38
